createdAt,value
2022-12-15T00:01:59.932Z,98.00
2022-12-15T00:05:04.315Z,97.90
2022-12-15T00:08:08.561Z,97.90
2022-12-15T00:11:12.993Z,97.70
2022-12-15T00:14:17.336Z,97.80
2022-12-15T00:17:21.930Z,97.70
2022-12-15T00:20:26.422Z,97.70
2022-12-15T00:23:31.685Z,97.70
2022-12-15T00:26:36.332Z,97.70
2022-12-15T00:29:41.669Z,98.10
2022-12-15T00:32:46.260Z,98.00
2022-12-15T00:35:50.732Z,97.90
2022-12-15T00:38:45.663Z,98.10
2022-12-15T00:41:31.545Z,98.10
2022-12-15T00:44:20.577Z,98.00
2022-12-15T00:47:06.959Z,98.00
2022-12-15T00:50:11.495Z,97.90
2022-12-15T00:53:15.782Z,97.80
2022-12-15T00:56:20.271Z,98.20
2022-12-15T00:59:24.652Z,97.90
2022-12-15T01:02:29.359Z,97.70
2022-12-15T01:05:34.385Z,97.70
2022-12-15T01:08:38.945Z,97.50
2022-12-15T01:11:43.509Z,97.50
2022-12-15T01:14:47.857Z,97.50
2022-12-15T01:17:52.434Z,97.80
2022-12-15T01:20:38.224Z,97.70
2022-12-15T01:23:24.321Z,97.90
2022-12-15T01:26:10.213Z,97.70
2022-12-15T01:28:56.228Z,97.80
2022-12-15T01:31:44.082Z,97.70
2022-12-15T01:34:30.207Z,97.40
2022-12-15T01:37:16.116Z,97.20
2022-12-15T01:40:20.457Z,97.30
2022-12-15T01:43:13.740Z,97.30
2022-12-15T01:46:26.391Z,97.40
2022-12-15T01:49:15.666Z,97.40
2022-12-15T01:52:04.199Z,97.40
2022-12-15T01:54:53.975Z,97.20
2022-12-15T01:57:40.645Z,97.20
2022-12-15T02:00:26.852Z,97.00
2022-12-15T02:03:13.260Z,96.70
2022-12-15T02:06:01.013Z,96.70
2022-12-15T02:08:47.795Z,96.60
2022-12-15T02:11:57.390Z,96.70
2022-12-15T02:14:44.653Z,96.90
2022-12-15T02:17:46.016Z,96.90
2022-12-15T02:20:51.351Z,96.90
2022-12-15T02:23:55.912Z,97.00
2022-12-15T02:26:54.003Z,96.90
2022-12-15T02:29:58.879Z,96.90
2022-12-15T02:33:00.152Z,96.70
2022-12-15T02:36:05.027Z,96.60
2022-12-15T02:38:51.550Z,96.70
2022-12-15T02:41:37.780Z,96.70
2022-12-15T02:44:23.400Z,96.70
2022-12-15T02:47:17.784Z,97.10
2022-12-15T02:50:15.785Z,97.10
2022-12-15T02:53:14.780Z,97.00
2022-12-15T02:56:00.419Z,96.90
2022-12-15T02:58:46.480Z,96.80
2022-12-15T03:01:58.998Z,96.70
2022-12-15T03:04:45.543Z,96.70
2022-12-15T03:07:31.450Z,97.00
2022-12-15T03:10:18.229Z,96.90
2022-12-15T03:13:03.946Z,97.00
2022-12-15T03:15:49.963Z,97.10
2022-12-15T03:18:35.664Z,96.90
2022-12-15T03:21:21.801Z,96.50
2022-12-15T03:24:07.889Z,96.30
2022-12-15T03:26:54.024Z,96.00
2022-12-15T03:29:39.952Z,96.00
2022-12-15T03:32:25.620Z,96.00
2022-12-15T03:35:12.943Z,96.00
2022-12-15T03:37:58.586Z,96.00
2022-12-15T03:40:44.537Z,96.10
2022-12-15T03:43:31.466Z,96.20
2022-12-15T03:46:17.656Z,96.30
2022-12-15T03:49:03.832Z,96.50
2022-12-15T03:51:49.572Z,96.60
2022-12-15T03:54:35.614Z,96.80
2022-12-15T03:57:21.784Z,96.80
2022-12-15T04:00:08.741Z,96.70
2022-12-15T04:03:00.540Z,96.70
2022-12-15T04:05:46.336Z,96.40
2022-12-15T04:08:32.681Z,96.40
2022-12-15T04:11:19.096Z,96.50
2022-12-15T04:14:05.088Z,96.40
2022-12-15T04:16:51.121Z,96.80
2022-12-15T04:19:56.207Z,96.80
2022-12-15T04:22:46.368Z,96.60
2022-12-15T04:25:50.856Z,96.70
2022-12-15T04:28:55.219Z,96.70
2022-12-15T04:32:01.187Z,96.60
2022-12-15T04:35:05.662Z,96.80
2022-12-15T04:38:09.979Z,96.70
2022-12-15T04:41:14.292Z,96.60
2022-12-15T04:44:18.731Z,96.60
2022-12-15T04:47:23.228Z,96.90
2022-12-15T04:50:27.654Z,97.00
2022-12-15T04:53:33.903Z,96.80
2022-12-15T04:56:38.897Z,96.70
2022-12-15T04:59:43.464Z,96.90
2022-12-15T05:02:48.233Z,97.00
2022-12-15T05:05:54.491Z,96.90
2022-12-15T05:08:59.061Z,96.90
2022-12-15T05:12:03.589Z,97.00
2022-12-15T05:15:08.041Z,97.00
2022-12-15T05:18:12.389Z,96.90
2022-12-15T05:21:16.807Z,96.60
2022-12-15T05:24:21.343Z,96.60
2022-12-15T05:27:25.754Z,96.30
2022-12-15T05:30:30.068Z,96.30
2022-12-15T05:33:15.829Z,96.50
2022-12-15T05:36:01.859Z,96.70
2022-12-15T05:38:51.365Z,96.60
2022-12-15T05:41:37.357Z,96.60
2022-12-15T05:44:24.133Z,96.70
2022-12-15T05:47:11.688Z,96.50
2022-12-15T05:49:57.806Z,96.20
2022-12-15T05:52:49.126Z,96.60
2022-12-15T05:55:35.375Z,96.70
2022-12-15T05:58:21.378Z,96.60
2022-12-15T06:01:07.530Z,96.40
2022-12-15T06:03:54.030Z,96.40
2022-12-15T06:06:40.672Z,96.40
2022-12-15T06:09:26.456Z,96.80
2022-12-15T06:12:12.691Z,96.60
2022-12-15T06:14:58.997Z,96.70
2022-12-15T06:17:44.709Z,96.90
2022-12-15T06:20:35.526Z,97.00
2022-12-15T06:23:21.471Z,97.00
2022-12-15T06:26:10.516Z,96.60
2022-12-15T06:28:58.054Z,96.40
2022-12-15T06:31:44.575Z,96.80
2022-12-15T06:34:30.828Z,96.40
2022-12-15T06:37:16.938Z,96.70
2022-12-15T06:40:02.890Z,96.90
2022-12-15T06:42:48.872Z,96.90
2022-12-15T06:45:35.249Z,96.80
2022-12-15T06:48:21.812Z,97.00
2022-12-15T06:51:15.016Z,97.00
2022-12-15T06:54:02.462Z,96.70
2022-12-15T06:56:49.824Z,96.50
2022-12-15T06:59:36.287Z,96.60
2022-12-15T07:02:28.510Z,96.70
2022-12-15T07:05:14.825Z,96.70
2022-12-15T07:08:00.693Z,96.60
2022-12-15T07:10:46.913Z,96.40
2022-12-15T07:13:33.489Z,96.70
2022-12-15T07:16:20.421Z,96.70
2022-12-15T07:19:06.360Z,96.30
2022-12-15T07:21:52.913Z,96.50
2022-12-15T07:24:39.116Z,96.40
2022-12-15T07:27:25.322Z,96.30
2022-12-15T07:30:12.417Z,96.40
2022-12-15T07:32:59.099Z,96.50
2022-12-15T07:35:52.710Z,96.50
2022-12-15T07:38:38.912Z,96.40
2022-12-15T07:41:25.045Z,96.50
2022-12-15T07:44:11.105Z,96.40
2022-12-15T07:46:57.064Z,96.20
2022-12-15T07:49:43.103Z,96.20
2022-12-15T07:52:29.173Z,96.20
2022-12-15T07:55:16.452Z,96.30
2022-12-15T07:58:02.539Z,96.30
2022-12-15T08:00:49.218Z,96.40
2022-12-15T08:03:36.148Z,96.00
2022-12-15T08:06:22.727Z,95.70
2022-12-15T08:09:09.861Z,95.80
2022-12-15T08:11:55.543Z,96.00
2022-12-15T08:14:41.541Z,95.90
2022-12-15T08:17:27.864Z,95.60
2022-12-15T08:20:15.152Z,95.30
2022-12-15T08:23:00.984Z,95.10
2022-12-15T08:25:47.916Z,94.60
2022-12-15T08:28:37.564Z,94.60
2022-12-15T08:31:24.299Z,95.00
2022-12-15T08:34:10.009Z,94.50
2022-12-15T08:36:56.437Z,94.60
2022-12-15T08:39:42.604Z,94.20
2022-12-15T08:42:32.758Z,94.50
2022-12-15T08:45:18.813Z,94.70
2022-12-15T08:48:04.832Z,94.80
2022-12-15T08:50:50.977Z,94.90
2022-12-15T08:53:37.047Z,94.60
2022-12-15T08:56:25.317Z,94.90
2022-12-15T08:59:11.128Z,94.80
2022-12-15T09:01:57.330Z,94.80
2022-12-15T09:04:45.290Z,94.70
2022-12-15T09:07:31.704Z,94.80
2022-12-15T09:10:17.541Z,94.70
2022-12-15T09:13:03.403Z,94.60
2022-12-15T09:16:15.504Z,94.40
2022-12-15T09:19:01.261Z,94.20
2022-12-15T09:21:48.245Z,94.00
2022-12-15T09:24:35.264Z,93.50
2022-12-15T09:27:21.523Z,93.30
2022-12-15T09:30:09.195Z,93.50
2022-12-15T09:32:55.258Z,93.40
2022-12-15T09:35:41.817Z,93.30
2022-12-15T09:38:27.943Z,93.60
2022-12-15T09:41:20.127Z,93.50
2022-12-15T09:44:16.493Z,93.80
2022-12-15T09:47:08.601Z,93.70
2022-12-15T09:49:55.725Z,93.80
2022-12-15T09:52:49.877Z,94.10
2022-12-15T09:55:36.009Z,93.60
2022-12-15T09:58:41.150Z,93.30
2022-12-15T10:01:30.119Z,93.20
2022-12-15T10:04:28.473Z,93.20
2022-12-15T10:07:18.113Z,93.50
2022-12-15T10:10:05.090Z,93.30
2022-12-15T10:13:01.324Z,93.20
2022-12-15T10:15:53.031Z,93.50
2022-12-15T10:18:50.410Z,93.30
2022-12-15T10:21:36.727Z,93.00
2022-12-15T10:24:59.859Z,93.00
2022-12-15T10:27:31.852Z,93.00
2022-12-15T10:30:18.170Z,93.00
2022-12-15T10:33:16.635Z,92.70
2022-12-15T10:36:05.133Z,92.60
2022-12-15T10:38:51.218Z,92.60
2022-12-15T10:41:37.161Z,92.50
2022-12-15T10:44:32.037Z,92.50
2022-12-15T10:47:21.056Z,92.60
2022-12-15T10:50:36.979Z,92.70
2022-12-15T10:53:38.701Z,92.60
2022-12-15T10:56:32.316Z,92.20
2022-12-15T10:59:29.365Z,92.60
2022-12-15T11:02:34.550Z,92.30
2022-12-15T11:05:21.047Z,92.50
2022-12-15T11:08:15.759Z,92.50
2022-12-15T11:11:25.954Z,92.40
2022-12-15T11:14:35.508Z,92.70
2022-12-15T11:17:22.166Z,92.60
2022-12-15T11:20:17.066Z,92.20
2022-12-15T11:23:05.786Z,91.90
2022-12-15T11:25:58.183Z,91.80
2022-12-15T11:28:48.552Z,92.20
2022-12-15T11:31:40.133Z,92.60
2022-12-15T11:34:36.277Z,92.50
2022-12-15T11:37:32.452Z,92.90
2022-12-15T11:40:30.814Z,92.50
2022-12-15T11:43:36.560Z,92.20
2022-12-15T11:46:24.353Z,92.40
2022-12-15T11:49:29.236Z,92.70
2022-12-15T11:52:30.339Z,92.90
2022-12-15T11:55:23.080Z,93.30
2022-12-15T11:58:24.438Z,93.20
2022-12-15T12:01:22.475Z,93.60
2022-12-15T12:04:08.391Z,93.60
2022-12-15T12:07:16.131Z,93.50
2022-12-15T12:10:06.061Z,93.40
2022-12-15T12:13:10.743Z,93.60
2022-12-15T12:16:02.761Z,93.60
2022-12-15T12:18:55.201Z,93.80
2022-12-15T12:21:46.237Z,93.60
2022-12-15T12:24:45.193Z,94.20
2022-12-15T12:27:40.682Z,93.70
2022-12-15T12:30:29.411Z,93.80
2022-12-15T12:33:15.269Z,93.70
2022-12-15T12:36:19.528Z,93.90
2022-12-15T12:39:06.538Z,93.90
2022-12-15T12:42:03.732Z,94.00
2022-12-15T12:44:49.988Z,94.10
2022-12-15T12:47:38.147Z,94.10
2022-12-15T12:50:27.640Z,94.40
2022-12-15T12:53:32.161Z,94.40
2022-12-15T12:56:36.165Z,94.20
2022-12-15T12:59:28.274Z,94.10
2022-12-15T13:02:14.417Z,94.30
2022-12-15T13:05:00.561Z,94.90
2022-12-15T13:07:53.076Z,95.00
2022-12-15T13:10:38.745Z,95.10
2022-12-15T13:13:31.685Z,94.80
2022-12-15T13:16:20.324Z,94.60
2022-12-15T13:19:08.476Z,94.70
2022-12-15T13:21:55.249Z,94.90
2022-12-15T13:24:46.239Z,95.40
2022-12-15T13:27:37.530Z,95.20
2022-12-15T13:30:23.484Z,95.10
2022-12-15T13:33:19.053Z,95.40
2022-12-15T13:36:05.421Z,95.40
2022-12-15T13:38:53.329Z,95.20
2022-12-15T13:42:07.396Z,95.20
2022-12-15T13:44:52.445Z,95.20
2022-12-15T13:47:38.552Z,94.90
2022-12-15T13:50:38.688Z,95.00
2022-12-15T13:53:25.904Z,94.90
2022-12-15T13:56:12.238Z,95.20
2022-12-15T13:59:04.168Z,95.40
2022-12-15T14:01:51.176Z,95.50
2022-12-15T14:04:37.284Z,95.30
2022-12-15T14:07:23.337Z,95.10
2022-12-15T14:10:17.107Z,95.10
2022-12-15T14:13:15.882Z,95.20
2022-12-15T14:16:04.104Z,95.20
2022-12-15T14:19:03.793Z,95.00
2022-12-15T14:21:51.337Z,94.90
2022-12-15T14:24:42.104Z,94.70
2022-12-15T14:27:29.473Z,95.00
2022-12-15T14:30:28.328Z,95.00
2022-12-15T14:33:15.665Z,95.10
2022-12-15T14:36:04.697Z,95.30
2022-12-15T14:38:52.744Z,95.00
2022-12-15T14:41:43.757Z,94.90
2022-12-15T14:44:31.765Z,95.10
2022-12-15T14:47:36.128Z,95.40
2022-12-15T14:50:25.041Z,95.30
2022-12-15T14:53:15.513Z,95.50
2022-12-15T14:56:24.174Z,95.40
2022-12-15T14:59:20.199Z,95.70
2022-12-15T15:02:14.512Z,95.40
2022-12-15T15:05:03.729Z,95.70
2022-12-15T15:07:54.357Z,96.00
2022-12-15T15:10:40.754Z,95.90
2022-12-15T15:13:39.800Z,95.80
2022-12-15T15:16:27.457Z,95.60
2022-12-15T15:19:18.160Z,95.80
2022-12-15T15:22:04.117Z,95.90
2022-12-15T15:24:51.052Z,96.00
2022-12-15T15:27:38.634Z,96.00
2022-12-15T15:30:24.442Z,96.10
2022-12-15T15:33:10.723Z,95.60
2022-12-15T15:36:01.495Z,96.10
2022-12-15T15:38:47.572Z,96.10
2022-12-15T15:41:33.763Z,95.90
2022-12-15T15:44:19.600Z,95.80
2022-12-15T15:47:05.996Z,95.80
2022-12-15T15:49:52.548Z,95.90
2022-12-15T15:52:38.385Z,95.80
2022-12-15T15:55:29.486Z,96.00
2022-12-15T15:58:16.291Z,95.90
2022-12-15T16:01:02.661Z,95.80
2022-12-15T16:03:50.702Z,95.90
2022-12-15T16:06:38.022Z,96.00
2022-12-15T16:09:25.402Z,95.90
2022-12-15T16:12:21.838Z,95.90
2022-12-15T16:15:14.650Z,95.90
2022-12-15T16:18:00.612Z,95.90
2022-12-15T16:20:49.495Z,96.30
2022-12-15T16:23:35.373Z,96.30
2022-12-15T16:26:25.716Z,96.10
2022-12-15T16:29:16.061Z,96.40
2022-12-15T16:32:02.189Z,96.30
2022-12-15T16:34:49.705Z,96.10
2022-12-15T16:37:39.655Z,96.20
2022-12-15T16:40:27.272Z,96.00
2022-12-15T16:43:15.373Z,96.10
2022-12-15T16:46:01.542Z,96.40
2022-12-15T16:48:47.341Z,96.20
2022-12-15T16:51:36.572Z,96.30
2022-12-15T16:54:24.304Z,96.20
2022-12-15T16:57:11.837Z,96.10
2022-12-15T16:59:57.787Z,96.20
2022-12-15T17:02:44.548Z,96.30
2022-12-15T17:05:35.888Z,96.10
2022-12-15T17:08:31.337Z,96.10
2022-12-15T17:11:22.258Z,96.50
2022-12-15T17:14:09.774Z,96.40
2022-12-15T17:16:55.718Z,96.40
2022-12-15T17:19:52.606Z,96.10
2022-12-15T17:22:50.148Z,96.30
2022-12-15T17:26:18.172Z,96.20
2022-12-15T17:28:43.772Z,96.20
2022-12-15T17:31:35.178Z,96.40
2022-12-15T17:34:32.394Z,96.60
2022-12-15T17:37:18.856Z,96.70
2022-12-15T17:40:13.650Z,96.60
2022-12-15T17:42:59.655Z,96.30
2022-12-15T17:45:45.899Z,96.30
2022-12-15T17:48:32.438Z,96.50
2022-12-15T17:51:18.942Z,96.60
2022-12-15T17:54:05.022Z,96.70
2022-12-15T17:56:51.777Z,96.90
2022-12-15T17:59:37.537Z,96.90
2022-12-15T18:02:23.854Z,96.70
2022-12-15T18:05:09.683Z,96.70
2022-12-15T18:07:56.773Z,97.00
2022-12-15T18:10:43.391Z,97.00
2022-12-15T18:13:35.380Z,97.00
2022-12-15T18:16:21.958Z,96.90
2022-12-15T18:19:08.156Z,96.90
2022-12-15T18:21:54.630Z,96.80
2022-12-15T18:24:40.602Z,96.70
2022-12-15T18:27:28.121Z,96.90
2022-12-15T18:30:16.764Z,96.80
2022-12-15T18:33:02.697Z,97.00
2022-12-15T18:35:49.910Z,97.00
2022-12-15T18:38:35.780Z,97.30
2022-12-15T18:41:21.851Z,97.40
2022-12-15T18:44:12.141Z,97.50
2022-12-15T18:46:58.268Z,97.60
2022-12-15T18:49:44.404Z,97.60
2022-12-15T18:52:34.439Z,97.30
2022-12-15T18:55:22.284Z,97.50
2022-12-15T18:58:14.735Z,97.40
2022-12-15T19:01:02.396Z,97.40
2022-12-15T19:03:48.341Z,97.30
2022-12-15T19:06:36.360Z,97.30
2022-12-15T19:09:23.199Z,97.40
2022-12-15T19:12:20.209Z,97.40
2022-12-15T19:15:07.083Z,97.70
2022-12-15T19:18:11.783Z,97.70
2022-12-15T19:21:16.195Z,97.70
2022-12-15T19:24:02.179Z,98.00
2022-12-15T19:26:48.046Z,97.70
2022-12-15T19:29:34.043Z,97.80
2022-12-15T19:32:20.259Z,97.90
2022-12-15T19:35:06.168Z,97.70
2022-12-15T19:37:55.146Z,97.70
2022-12-15T19:40:41.576Z,97.50
2022-12-15T19:43:27.754Z,97.50
2022-12-15T19:46:14.914Z,97.70
2022-12-15T19:49:01.091Z,97.80
2022-12-15T19:51:47.301Z,97.70
2022-12-15T19:54:33.107Z,97.60
2022-12-15T19:57:19.450Z,97.60
2022-12-15T20:00:15.972Z,97.80
2022-12-15T20:03:02.035Z,98.10
2022-12-15T20:05:49.835Z,98.00
2022-12-15T20:08:37.765Z,97.90
2022-12-15T20:11:25.006Z,98.10
2022-12-15T20:14:12.560Z,98.30
2022-12-15T20:16:58.797Z,98.30
2022-12-15T20:19:44.808Z,98.50
2022-12-15T20:22:30.744Z,98.70
2022-12-15T20:25:17.705Z,98.90
2022-12-15T20:28:04.858Z,98.80
2022-12-15T20:30:51.577Z,98.70
2022-12-15T20:33:37.433Z,98.70
2022-12-15T20:36:25.590Z,98.90
2022-12-15T20:39:22.615Z,98.90
2022-12-15T20:42:13.903Z,98.70
2022-12-15T20:44:59.724Z,98.40
2022-12-15T20:47:47.350Z,98.60
2022-12-15T20:50:40.894Z,98.70
2022-12-15T20:53:27.208Z,98.80
2022-12-15T20:56:12.807Z,98.70
2022-12-15T20:58:59.192Z,98.60
2022-12-15T21:01:46.603Z,99.10
2022-12-15T21:04:32.754Z,99.00
2022-12-15T21:07:18.895Z,99.30
2022-12-15T21:10:04.792Z,99.00
2022-12-15T21:12:50.854Z,99.10
2022-12-15T21:15:37.850Z,99.10
2022-12-15T21:21:31.873Z,99.30
2022-12-15T21:24:24.904Z,99.40
2022-12-15T21:27:14.860Z,99.60
2022-12-15T21:30:00.510Z,99.30
2022-12-15T21:32:47.973Z,99.10
2022-12-15T21:35:33.849Z,99.10
2022-12-15T21:38:28.484Z,99.00
2022-12-15T21:41:19.090Z,99.00
2022-12-15T21:44:10.658Z,99.20
2022-12-15T21:46:56.391Z,99.00
2022-12-15T21:49:42.430Z,99.30
2022-12-15T21:52:28.437Z,99.40
2022-12-15T21:55:19.119Z,99.30
2022-12-15T21:58:16.220Z,99.50
2022-12-15T22:01:02.232Z,99.60
2022-12-15T22:03:53.011Z,99.50
2022-12-15T22:06:40.588Z,99.50
2022-12-15T22:09:26.799Z,99.30
2022-12-15T22:12:17.924Z,99.60
2022-12-15T22:15:04.113Z,99.60
2022-12-15T22:17:50.844Z,99.50
2022-12-15T22:20:36.507Z,99.40
2022-12-15T22:23:22.587Z,99.60
2022-12-15T22:26:18.701Z,99.60
2022-12-15T22:29:11.372Z,99.60
2022-12-15T22:31:57.540Z,99.40
2022-12-15T22:34:43.505Z,99.20
2022-12-15T22:37:29.561Z,99.50
2022-12-15T22:40:16.219Z,99.60
2022-12-15T22:43:02.453Z,99.60
2022-12-15T22:45:49.328Z,99.60
2022-12-15T22:48:37.083Z,99.60
2022-12-15T22:51:23.315Z,99.60
2022-12-15T22:54:17.820Z,99.70
2022-12-15T22:57:05.364Z,99.60
2022-12-15T22:59:53.351Z,99.60
2022-12-15T23:02:43.227Z,99.70
2022-12-15T23:05:29.361Z,99.80
2022-12-15T23:08:14.976Z,99.90
2022-12-15T23:11:19.895Z,99.90
2022-12-15T23:14:07.005Z,99.90
2022-12-15T23:16:53.481Z,99.90
2022-12-15T23:19:44.730Z,99.90
2022-12-15T23:22:30.693Z,99.90
2022-12-15T23:25:16.884Z,99.90
2022-12-15T23:28:03.185Z,99.90
2022-12-15T23:30:52.477Z,99.90
2022-12-15T23:33:39.033Z,99.90
2022-12-15T23:36:25.132Z,99.90
2022-12-15T23:39:10.669Z,99.90
2022-12-15T23:41:56.527Z,99.90
2022-12-15T23:44:42.507Z,99.90
2022-12-15T23:47:28.348Z,99.90
2022-12-15T23:50:14.375Z,99.90
2022-12-15T23:53:00.533Z,99.90
2022-12-15T23:55:46.537Z,99.90
2022-12-15T23:58:32.763Z,99.90
